Time;durP1;ratioP1;P1;durP2;ratioP2;P2;SDS_P1;SDS_P2;PMS_P1;PMS_P2;Temp;Humidity;BMP_temperature;BMP_pressure;BME280_temperature;BME280_humidity;BME280_pressure;Samples;Min_cycle;Max_cycle;Signal;HPM_P1;HPM_P2
2022/06/20 00:00:43;;;;;;;0.68;0.68;;;25.70;45.40;;;;;;5107846;28;20054;-64
2022/06/20 00:03:22;;;;;;;0.50;0.50;;;25.70;45.50;;;;;;5108492;28;20078;-64
2022/06/20 00:05:50;;;;;;;0.60;0.60;;;25.70;45.50;;;;;;5108524;28;20126;-64
2022/06/20 00:08:17;;;;;;;0.50;0.50;;;25.70;45.50;;;;;;5108135;28;20805;-64
2022/06/20 00:10:45;;;;;;;0.50;0.50;;;25.70;45.60;;;;;;5108095;28;20142;-64
2022/06/20 00:13:22;;;;;;;0.40;0.40;;;25.70;45.60;;;;;;5093582;28;20048;-64
2022/06/20 00:15:52;;;;;;;0.50;0.50;;;25.70;45.60;;;;;;5088074;28;20121;-64
2022/06/20 00:18:19;;;;;;;0.60;0.60;;;25.70;45.60;;;;;;5087645;28;20516;-64
2022/06/20 00:20:47;;;;;;;0.60;0.60;;;25.60;45.60;;;;;;5088035;28;20079;-64
2022/06/20 00:23:14;;;;;;;0.60;0.60;;;25.60;45.60;;;;;;5088301;28;20529;-64
2022/06/20 00:25:42;;;;;;;0.50;0.50;;;25.60;45.70;;;;;;5087462;28;20130;-64
2022/06/20 00:28:11;;;;;;;0.50;0.50;;;25.60;45.70;;;;;;5089557;28;20382;-64
2022/06/20 00:30:39;;;;;;;0.50;0.50;;;25.60;45.70;;;;;;5091197;28;20077;-64
2022/06/20 00:33:07;;;;;;;0.55;0.55;;;25.60;45.70;;;;;;5090715;28;20500;-64
2022/06/20 00:35:36;;;;;;;0.80;0.80;;;25.60;45.70;;;;;;5091707;28;20139;-64
2022/06/20 00:38:05;;;;;;;0.40;0.40;;;25.60;45.80;;;;;;5091207;28;20125;-65
2022/06/20 00:40:39;;;;;;;0.45;0.45;;;25.60;45.80;;;;;;5090125;28;20083;-64
2022/06/20 00:43:09;;;;;;;0.70;0.70;;;25.60;45.80;;;;;;5091099;28;20130;-64
2022/06/20 00:45:41;;;;;;;0.40;0.40;;;25.60;45.80;;;;;;5091097;28;20047;-64
2022/06/20 00:48:19;;;;;;;0.60;0.60;;;25.50;45.80;;;;;;5090737;28;20079;-64
2022/06/20 00:50:50;;;;;;;0.63;0.63;;;25.60;45.90;;;;;;5090867;28;20563;-64
2022/06/20 00:53:28;;;;;;;0.73;0.73;;;25.50;45.80;;;;;;5091076;28;20382;-64
2022/06/20 00:56:18;;;;;;;0.52;0.52;;;25.60;45.90;;;;;;5090614;28;20064;-64
2022/06/20 00:58:47;;;;;;;;;;;25.50;45.90;;;;;;5091565;28;20097;-64
2022/06/20 01:01:17;;;;;;;0.90;0.90;;;25.50;45.90;;;;;;5090617;28;20336;-64
2022/06/20 01:03:53;;;;;;;0.52;0.52;;;25.50;45.90;;;;;;5090549;28;20079;-64
2022/06/20 01:06:30;;;;;;;0.40;0.40;;;25.50;46.50;;;;;;5090907;28;20468;-64
2022/06/20 01:09:02;;;;;;;0.75;0.75;;;25.50;45.90;;;;;;5090935;28;20490;-64
2022/06/20 01:11:50;;;;;;;0.77;0.60;;;25.50;45.90;;;;;;5089269;28;20095;-64
2022/06/20 01:14:23;;;;;;;0.70;0.70;;;25.50;46.00;;;;;;5111217;28;20048;-64
2022/06/20 01:16:58;;;;;;;0.60;0.60;;;25.50;46.00;;;;;;5110758;28;20048;-63
2022/06/20 01:19:39;;;;;;;0.52;0.50;;;25.50;46.00;;;;;;5111080;28;20092;-64
2022/06/20 01:22:26;;;;;;;0.60;0.60;;;25.40;46.00;;;;;;5109887;28;20093;-64
2022/06/20 01:25:33;;;;;;;0.55;0.55;;;25.50;46.10;;;;;;5109611;28;20081;-64
2022/06/20 01:28:02;;;;;;;0.68;0.50;;;25.50;46.10;;;;;;5095480;28;20090;-64
2022/06/20 01:30:35;;;;;;;0.70;0.55;;;25.40;46.60;;;;;;5110818;28;20047;-64
2022/06/20 01:33:02;;;;;;;0.50;0.50;;;25.50;46.10;;;;;;5110681;28;20400;-64
2022/06/20 01:38:19;;;;;;;0.50;0.50;;;25.40;46.10;;;;;;5109549;28;20737;-64
2022/06/20 01:43:36;;;;;;;0.70;0.70;;;25.40;46.10;;;;;;5109968;28;20039;-64
2022/06/20 01:46:09;;;;;;;0.60;0.60;;;25.40;46.20;;;;;;5110244;28;20109;-64
2022/06/20 01:48:40;;;;;;;0.60;0.60;;;25.40;46.20;;;;;;5110406;28;20082;-64
2022/06/20 01:51:16;;;;;;;0.60;0.60;;;25.40;46.20;;;;;;5110091;28;20113;-64
2022/06/20 01:53:44;;;;;;;0.45;0.45;;;25.40;46.20;;;;;;5110139;28;20043;-64
2022/06/20 01:56:11;;;;;;;0.63;0.57;;;25.40;46.20;;;;;;5109934;28;20106;-65
2022/06/20 01:58:44;;;;;;;0.70;0.65;;;25.40;46.20;;;;;;5110084;28;20048;-64
2022/06/20 02:01:14;;;;;;;0.50;0.50;;;25.40;46.30;;;;;;5109647;28;20138;-64
2022/06/20 02:03:45;;;;;;;0.80;0.80;;;25.40;46.30;;;;;;5109773;27;20047;-64
2022/06/20 02:06:17;;;;;;;0.50;0.50;;;25.40;46.30;;;;;;5109586;28;20424;-64
2022/06/20 02:08:50;;;;;;;0.70;0.70;;;25.40;46.30;;;;;;5109610;28;20571;-64
2022/06/20 02:11:37;;;;;;;0.60;0.60;;;25.40;46.30;;;;;;5109332;28;20549;-66
2022/06/20 02:14:19;;;;;;;0.60;0.60;;;25.40;46.30;;;;;;5088325;28;20385;-64
2022/06/20 02:16:54;;;;;;;0.60;0.60;;;25.40;46.30;;;;;;5088254;28;20101;-64
2022/06/20 02:19:29;;;;;;;0.55;0.55;;;25.40;46.30;;;;;;5089425;28;20472;-64
2022/06/20 02:22:01;;;;;;;0.70;0.70;;;25.40;46.30;;;;;;5088088;28;20519;-64
2022/06/20 02:24:39;;;;;;;0.73;0.45;;;25.40;46.30;;;;;;5089384;28;20048;-64
2022/06/20 02:27:20;;;;;;;0.77;0.77;;;25.40;46.40;;;;;;5088893;28;20444;-64
2022/06/20 02:29:47;;;;;;;0.50;0.50;;;25.40;46.30;;;;;;5099472;28;20050;-64
2022/06/20 02:32:29;;;;;;;0.70;0.70;;;25.40;46.40;;;;;;5109326;28;20052;-64
2022/06/20 02:34:56;;;;;;;0.75;0.70;;;25.40;46.40;;;;;;5108876;28;20492;-64
2022/06/20 02:37:26;;;;;;;0.47;0.47;;;25.40;46.40;;;;;;5107567;28;20582;-64
2022/06/20 02:39:57;;;;;;;0.80;0.80;;;25.40;46.40;;;;;;5109701;28;20105;-64
2022/06/20 02:42:32;;;;;;;0.55;0.55;;;25.30;46.40;;;;;;5109025;28;20043;-64
2022/06/20 02:45:02;;;;;;;0.60;0.60;;;25.40;46.40;;;;;;5109181;28;20052;-64
2022/06/20 02:47:32;;;;;;;0.50;0.50;;;25.40;46.40;;;;;;5108774;28;20079;-64
2022/06/20 02:50:01;;;;;;;0.80;0.80;;;25.40;46.50;;;;;;5108980;28;20138;-64
2022/06/20 02:52:40;;;;;;;0.60;0.60;;;25.30;46.40;;;;;;5108498;28;20039;-64
2022/06/20 02:55:09;;;;;;;1.00;0.60;;;25.40;46.50;;;;;;5109030;28;20499;-64
2022/06/20 02:57:44;;;;;;;0.57;0.57;;;25.30;46.50;;;;;;5108588;28;20583;-64
2022/06/20 03:00:16;;;;;;;0.68;0.68;;;25.40;46.50;;;;;;5109130;28;20089;-64
2022/06/20 03:02:52;;;;;;;0.45;0.45;;;25.30;46.40;;;;;;5108799;28;20556;-64
2022/06/20 03:05:20;;;;;;;0.70;0.70;;;25.40;46.50;;;;;;5108892;28;20608;-64
2022/06/20 03:07:49;;;;;;;0.38;0.38;;;25.40;46.50;;;;;;5108347;28;20130;-64
2022/06/20 03:10:23;;;;;;;0.68;0.68;;;25.40;46.50;;;;;;5108982;28;20044;-64
2022/06/20 03:12:51;;;;;;;0.60;0.60;;;25.30;46.50;;;;;;5108515;28;20052;-64
2022/06/20 03:15:19;;;;;;;0.60;0.60;;;25.40;46.50;;;;;;5109329;28;20083;-64
2022/06/20 03:17:49;;;;;;;0.60;0.60;;;25.40;46.50;;;;;;5108731;28;20040;-64
2022/06/20 03:20:19;;;;;;;0.70;0.70;;;25.40;46.50;;;;;;5108772;28;20079;-64
2022/06/20 03:22:52;;;;;;;0.70;0.70;;;25.40;46.50;;;;;;5108570;28;20075;-64
2022/06/20 03:25:20;;;;;;;0.50;0.50;;;25.40;46.50;;;;;;5108913;28;20078;-64
2022/06/20 03:27:52;;;;;;;0.60;0.60;;;25.40;46.50;;;;;;5108499;28;20135;-64
2022/06/20 03:30:29;;;;;;;0.80;0.80;;;25.40;46.40;;;;;;5108729;28;20047;-64
2022/06/20 03:32:58;;;;;;;0.73;0.70;;;25.40;46.40;;;;;;5108622;28;20453;-64
2022/06/20 03:35:30;;;;;;;0.93;0.93;;;25.40;46.30;;;;;;5108708;28;20074;-64
2022/06/20 03:38:03;;;;;;;0.77;0.77;;;25.50;46.40;;;;;;5108234;28;20370;-64
2022/06/20 03:40:31;;;;;;;0.65;0.65;;;25.50;46.30;;;;;;5109148;28;20051;-64
2022/06/20 03:43:00;;;;;;;0.65;0.65;;;25.50;46.30;;;;;;5108192;28;20039;-64
2022/06/20 03:45:32;;;;;;;0.55;0.55;;;25.50;46.20;;;;;;5108571;28;20117;-64
2022/06/20 03:48:17;;;;;;;0.70;0.70;;;25.50;46.20;;;;;;5108470;28;20043;-64
2022/06/20 03:50:57;;;;;;;0.70;0.70;;;25.60;46.10;;;;;;5107025;28;20082;-64
2022/06/20 03:53:29;;;;;;;;;;;25.60;46.10;;;;;;5108850;28;20048;-64
2022/06/20 03:56:34;;;;;;;0.57;0.57;;;25.60;46.00;;;;;;5108037;28;20379;-64
2022/06/20 03:59:13;;;;;;;0.60;0.60;;;25.60;46.00;;;;;;5108640;28;20462;-64
2022/06/20 04:01:59;;;;;;;0.50;0.50;;;25.70;45.90;;;;;;5108223;28;20079;-65
2022/06/20 04:04:46;;;;;;;0.90;0.90;;;25.70;45.80;;;;;;5112221;28;20048;-64
2022/06/20 04:07:21;;;;;;;1.55;0.68;;;25.70;45.70;;;;;;5096131;28;20105;-64
2022/06/20 04:13:01;;;;;;;0.70;0.70;;;25.80;45.70;;;;;;5100314;28;20497;-64
2022/06/20 04:15:46;;;;;;;0.60;0.60;;;25.80;45.60;;;;;;5096125;28;20134;-64
2022/06/20 04:18:27;;;;;;;0.60;0.60;;;25.80;45.50;;;;;;5102382;28;20082;-64
2022/06/20 04:21:15;;;;;;;1.02;0.85;;;25.90;45.50;;;;;;5102223;28;20093;-64
2022/06/20 04:24:01;;;;;;;1.30;1.00;;;25.90;45.40;;;;;;5100678;28;20068;-65
2022/06/20 04:26:42;;;;;;;1.60;1.10;;;25.90;45.40;;;;;;5099296;28;20075;-64
2022/06/20 04:29:19;;;;;;;1.45;0.77;;;25.90;45.30;;;;;;5100883;28;20122;-64
2022/06/20 04:32:03;;;;;;;1.10;0.90;;;26.00;45.30;;;;;;5100726;28;20044;-64
2022/06/20 04:34:47;;;;;;;1.02;1.02;;;26.00;45.20;;;;;;5100249;28;20608;-64
2022/06/20 04:37:35;;;;;;;0.70;0.70;;;26.00;45.20;;;;;;5096698;28;20080;-64
2022/06/20 04:40:16;;;;;;;0.82;0.82;;;26.00;45.10;;;;;;5090839;28;20130;-64
2022/06/20 04:43:04;;;;;;;0.85;0.85;;;26.00;45.10;;;;;;5091302;28;20188;-65
2022/06/20 04:45:58;;;;;;;0.88;0.88;;;26.10;45.00;;;;;;5090700;28;20485;-64
2022/06/20 04:48:26;;;;;;;1.08;1.08;;;26.10;45.10;;;;;;5098008;28;20131;-64
2022/06/20 04:50:59;;;;;;;0.80;0.80;;;26.10;45.00;;;;;;5095495;28;20097;-64
2022/06/20 04:53:29;;;;;;;3.95;1.77;;;26.20;45.00;;;;;;5092222;28;20094;-64
2022/06/20 04:56:00;;;;;;;1.08;0.98;;;26.20;44.90;;;;;;5109507;28;20079;-64
2022/06/20 04:58:34;;;;;;;1.38;1.27;;;26.20;44.90;;;;;;5110896;28;20047;-64
2022/06/20 05:01:02;;;;;;;1.13;1.00;;;26.20;44.90;;;;;;5110668;28;20090;-64
2022/06/20 05:03:35;;;;;;;2.53;1.10;;;26.30;44.90;;;;;;5104360;27;20047;-64
2022/06/20 05:06:06;;;;;;;3.72;1.70;;;26.30;44.90;;;;;;5104373;27;20219;-64
2022/06/20 05:08:38;;;;;;;1.38;1.20;;;26.30;44.80;;;;;;5106699;28;20383;-64
2022/06/20 05:11:27;;;;;;;1.10;1.10;;;26.30;44.80;;;;;;5093697;28;20040;-64
2022/06/20 05:14:12;;;;;;;1.42;1.30;;;26.20;44.90;;;;;;5095500;28;20075;-64
2022/06/20 05:16:47;;;;;;;1.23;1.10;;;26.10;45.20;;;;;;5103615;28;20055;-64
2022/06/20 05:19:27;;;;;;;1.35;1.25;;;25.90;45.50;;;;;;5103263;28;20578;-64
2022/06/20 05:22:00;;;;;;;1.42;1.33;;;25.70;46.00;;;;;;5099562;27;20104;-65
2022/06/20 05:24:32;;;;;;;1.80;1.70;;;25.40;46.50;;;;;;5097507;28;20043;-65
2022/06/20 05:27:09;;;;;;;1.20;1.20;;;25.10;47.20;;;;;;5093503;28;20047;-65
2022/06/20 05:29:40;;;;;;;2.90;2.70;;;24.80;48.00;;;;;;5090673;28;20047;-62
2022/06/20 05:32:13;;;;;;;2.72;2.53;;;24.40;49.20;;;;;;5088775;27;20484;-66
2022/06/20 05:34:49;;;;;;;2.90;2.70;;;24.10;49.30;;;;;;5090025;28;20480;-65
2022/06/20 05:37:43;;;;;;;3.58;2.85;;;23.80;49.30;;;;;;5084308;28;20073;-63
2022/06/20 05:40:34;;;;;;;3.38;3.10;;;23.60;49.60;;;;;;5088075;28;20152;-63
2022/06/20 05:43:02;;;;;;;3.60;3.40;;;23.20;48.90;;;;;;5084869;28;21588;-62
2022/06/20 05:45:30;;;;;;;3.45;3.25;;;23.00;48.60;;;;;;5089109;28;20040;-60
2022/06/20 05:48:02;;;;;;;4.22;3.83;;;22.70;49.40;;;;;;5093586;27;20087;-63
2022/06/20 05:50:52;;;;;;;5.03;4.30;;;22.50;49.10;;;;;;5088436;28;20044;-63
2022/06/20 05:53:26;;;;;;;4.75;4.22;;;22.30;49.20;;;;;;5088773;28;20079;-63
2022/06/20 05:55:56;;;;;;;5.20;3.75;;;22.10;49.60;;;;;;5088158;28;20557;-64
2022/06/20 05:58:26;;;;;;;;;;;22.00;49.80;;;;;;5088931;27;20044;-64
2022/06/20 06:00:58;;;;;;;5.32;3.85;;;21.90;50.20;;;;;;5084216;28;19929;-64
2022/06/20 06:03:48;;;;;;;8.90;3.88;;;21.80;50.40;;;;;;5091030;28;20404;-63
2022/06/20 06:06:31;;;;;;;4.65;4.13;;;21.80;50.60;;;;;;5088261;27;20055;-64
2022/06/20 06:09:12;;;;;;;5.72;4.97;;;21.80;51.00;;;;;;5089983;28;20047;-63
2022/06/20 06:11:46;;;;;;;7.15;3.88;;;21.80;51.00;;;;;;5098141;28;20040;-63
2022/06/20 06:14:30;;;;;;;6.25;3.95;;;21.80;51.80;;;;;;5093496;27;20117;-65
2022/06/20 06:17:25;;;;;;;4.10;3.58;;;21.80;51.80;;;;;;5090138;28;20413;-65
2022/06/20 06:20:14;;;;;;;3.92;3.63;;;21.70;52.10;;;;;;5089584;28;20055;-64
2022/06/20 06:22:45;;;;;;;4.22;3.85;;;21.60;52.70;;;;;;5092274;28;20483;-63
2022/06/20 06:25:33;;;;;;;4.63;4.07;;;21.40;53.30;;;;;;5086349;28;20072;-63
2022/06/20 06:28:05;;;;;;;8.73;4.75;;;21.30;53.60;;;;;;5091228;28;20139;-64
2022/06/20 06:30:49;;;;;;;3.95;3.65;;;21.30;54.00;;;;;;5088044;28;20062;-64
2022/06/20 06:33:49;;;;;;;5.80;3.65;;;21.20;54.30;;;;;;5088244;28;20507;-63
2022/06/20 06:36:30;;;;;;;6.60;3.50;;;21.10;54.70;;;;;;5092110;28;20148;-65
2022/06/20 06:39:25;;;;;;;4.20;3.88;;;21.10;54.90;;;;;;5087808;27;20082;-63
2022/06/20 06:41:57;;;;;;;6.57;4.05;;;21.00;55.20;;;;;;5088403;28;20189;-67
2022/06/20 06:44:32;;;;;;;4.28;3.88;;;21.00;55.30;;;;;;5085512;28;20075;-65
2022/06/20 06:47:02;;;;;;;3.42;3.13;;;21.00;55.60;;;;;;5088527;28;20077;-66
2022/06/20 06:49:36;;;;;;;5.13;4.10;;;21.00;55.60;;;;;;5093235;28;20121;-63
2022/06/20 06:52:26;;;;;;;3.83;3.53;;;21.00;55.70;;;;;;5092320;28;20044;-65
2022/06/20 06:55:19;;;;;;;3.45;3.15;;;21.00;55.70;;;;;;5087421;28;20476;-66
2022/06/20 06:57:53;;;;;;;3.88;3.58;;;21.00;55.80;;;;;;5088410;28;20077;-65
2022/06/20 07:00:33;;;;;;;3.80;3.50;;;21.00;56.50;;;;;;5088179;28;20039;-63
2022/06/20 07:03:14;;;;;;;6.22;3.65;;;21.00;56.20;;;;;;5089617;28;20048;-66
2022/06/20 07:05:48;;;;;;;3.72;3.38;;;21.00;56.10;;;;;;5090996;28;20052;-62
2022/06/20 07:08:46;;;;;;;3.70;3.40;;;21.00;56.20;;;;;;5091759;28;20052;-66
2022/06/20 07:11:24;;;;;;;3.50;3.30;;;21.10;56.40;;;;;;5089191;28;20389;-63
2022/06/20 07:14:15;;;;;;;5.53;3.55;;;21.00;56.30;;;;;;5092562;28;20400;-64
2022/06/20 07:17:15;;;;;;;3.65;3.35;;;21.00;56.40;;;;;;5088686;28;20047;-64
2022/06/20 07:19:46;;;;;;;4.17;3.33;;;21.10;56.60;;;;;;5088976;28;20079;-63
2022/06/20 07:22:16;;;;;;;3.90;3.60;;;21.10;56.70;;;;;;5089402;28;20717;-65
2022/06/20 07:24:44;;;;;;;4.97;3.80;;;21.10;56.80;;;;;;5089901;28;20044;-64
2022/06/20 07:27:28;;;;;;;3.72;3.42;;;21.10;56.80;;;;;;5089369;28;20108;-64
2022/06/20 07:30:07;;;;;;;3.55;3.25;;;21.10;57.00;;;;;;5096085;28;20043;-65
2022/06/20 07:32:53;;;;;;;3.75;3.45;;;21.10;57.40;;;;;;5093906;28;20523;-62
2022/06/20 07:35:41;;;;;;;3.40;3.13;;;21.20;57.20;;;;;;5086641;28;20044;-63
2022/06/20 07:38:25;;;;;;;5.20;3.33;;;21.20;57.30;;;;;;5091300;28;20511;-65
2022/06/20 07:41:07;;;;;;;5.60;3.72;;;21.20;57.40;;;;;;5077818;28;20571;-64
2022/06/20 07:43:41;;;;;;;3.47;3.13;;;21.20;57.60;;;;;;5096012;28;20127;-64
2022/06/20 07:46:21;;;;;;;6.25;3.25;;;21.30;57.70;;;;;;5098919;28;20044;-63
2022/06/20 07:48:51;;;;;;;2.70;2.55;;;21.30;57.70;;;;;;5090863;28;20048;-65
2022/06/20 07:51:30;;;;;;;3.83;3.53;;;21.40;57.70;;;;;;5097898;27;20090;-65
2022/06/20 07:54:17;;;;;;;4.43;3.28;;;21.40;57.60;;;;;;5091737;27;20075;-64
2022/06/20 07:56:51;;;;;;;3.55;3.25;;;21.50;57.60;;;;;;5093289;28;20052;-63
2022/06/20 07:59:28;;;;;;;3.50;3.20;;;21.50;57.70;;;;;;5092144;28;20048;-63
2022/06/20 08:02:10;;;;;;;4.55;3.00;;;21.60;57.80;;;;;;5087286;28;20048;-64
2022/06/20 08:04:38;;;;;;;3.03;2.83;;;21.60;57.90;;;;;;5090777;28;20047;-61
2022/06/20 08:07:20;;;;;;;3.22;3.03;;;21.60;57.90;;;;;;5089084;28;20056;-63
2022/06/20 08:10:04;;;;;;;2.92;2.72;;;21.70;57.90;;;;;;5091267;28;20454;-62
2022/06/20 08:12:59;;;;;;;2.95;2.75;;;21.70;57.60;;;;;;5096013;28;20120;-62
2022/06/20 08:15:33;;;;;;;3.22;2.67;;;21.70;57.50;;;;;;5092832;28;20056;-66
2022/06/20 08:18:00;;;;;;;3.50;2.60;;;21.80;57.70;;;;;;5091342;28;20043;-64
2022/06/20 08:20:33;;;;;;;3.00;2.80;;;21.80;57.70;;;;;;5094426;28;20138;-65
2022/06/20 08:23:12;;;;;;;3.08;2.88;;;21.80;57.70;;;;;;5097682;28;20051;-64
2022/06/20 08:25:46;;;;;;;3.40;3.00;;;21.90;57.70;;;;;;5088690;28;20056;-63
2022/06/20 08:28:19;;;;;;;2.75;2.58;;;21.90;57.50;;;;;;5091205;28;20105;-65
2022/06/20 08:30:59;;;;;;;2.95;2.75;;;22.00;57.60;;;;;;5092536;28;20492;-64
2022/06/20 08:33:54;;;;;;;2.75;2.55;;;22.00;57.60;;;;;;5091821;28;20701;-66
2022/06/20 08:36:30;;;;;;;4.45;2.60;;;21.90;57.50;;;;;;5091956;28;20079;-68
2022/06/20 08:39:14;;;;;;;3.25;3.05;;;22.00;57.30;;;;;;5091880;28;20039;-65
2022/06/20 08:42:12;;;;;;;2.97;2.78;;;22.00;57.30;;;;;;5093383;28;20122;-66
2022/06/20 08:45:19;;;;;;;2.97;2.78;;;22.00;57.30;;;;;;5096086;28;20055;-65
2022/06/20 08:48:26;;;;;;;3.08;2.78;;;22.10;57.20;;;;;;5090299;28;20083;-64
2022/06/20 08:51:30;;;;;;;2.72;2.53;;;22.10;57.30;;;;;;5086197;28;20044;-65
2022/06/20 08:54:37;;;;;;;2.90;2.70;;;22.10;57.40;;;;;;5095903;28;20625;-65
2022/06/20 08:57:15;;;;;;;2.50;2.40;;;22.10;57.40;;;;;;5097620;27;20135;-66
2022/06/20 09:00:03;;;;;;;3.10;2.88;;;22.10;57.20;;;;;;5095816;27;20044;-70
2022/06/20 09:03:10;;;;;;;3.35;3.15;;;22.10;57.00;;;;;;5096194;28;20147;-66
2022/06/20 09:06:16;;;;;;;2.80;2.58;;;22.10;57.00;;;;;;5093708;28;20060;-65
2022/06/20 09:09:09;;;;;;;2.53;2.40;;;22.20;56.90;;;;;;5091778;27;20063;-66
2022/06/20 09:12:16;;;;;;;3.10;2.80;;;22.20;56.80;;;;;;5093751;27;20043;-65
2022/06/20 09:15:20;;;;;;;3.92;2.90;;;22.20;56.70;;;;;;5090406;28;20733;-63
2022/06/20 09:18:27;;;;;;;2.72;2.53;;;22.10;56.50;;;;;;5094827;27;20047;-63
2022/06/20 09:21:08;;;;;;;3.17;2.88;;;22.10;56.30;;;;;;5092820;27;20217;-64
2022/06/20 09:24:16;;;;;;;3.15;2.80;;;22.10;56.20;;;;;;5088810;28;20390;-64
2022/06/20 09:26:58;;;;;;;3.08;2.60;;;22.10;56.10;;;;;;5092674;27;20848;-63
2022/06/20 09:29:54;;;;;;;2.92;2.42;;;22.10;56.00;;;;;;5090424;27;20055;-64
2022/06/20 09:32:44;;;;;;;4.82;3.00;;;22.10;55.90;;;;;;5087574;28;20876;-63
2022/06/20 09:35:48;;;;;;;3.13;2.83;;;22.10;55.80;;;;;;5086851;28;20062;-65
2022/06/20 09:38:47;;;;;;;4.23;2.40;;;22.10;55.80;;;;;;5097890;27;20079;-67
2022/06/20 09:41:31;;;;;;;2.85;2.65;;;22.10;55.90;;;;;;5098947;27;20071;-63
2022/06/20 09:44:18;;;;;;;2.63;2.42;;;22.10;56.20;;;;;;5094152;28;20117;-64
2022/06/20 09:47:26;;;;;;;3.92;2.40;;;22.10;56.20;;;;;;5090249;28;20344;-62
2022/06/20 09:50:34;;;;;;;2.22;2.13;;;22.10;56.10;;;;;;5092884;27;20131;-62
2022/06/20 09:53:29;;;;;;;2.90;2.70;;;22.10;56.20;;;;;;5093496;28;20484;-64
2022/06/20 09:56:21;;;;;;;2.50;2.40;;;22.10;56.30;;;;;;5093090;28;20048;-63
2022/06/20 09:59:20;;;;;;;3.28;2.50;;;22.10;56.10;;;;;;5091981;28;20108;-62
2022/06/20 10:02:09;;;;;;;2.35;2.20;;;22.10;55.90;;;;;;5094016;28;20044;-66
2022/06/20 10:05:06;;;;;;;4.40;2.80;;;22.20;55.70;;;;;;5091115;28;20584;-64
2022/06/20 10:08:12;;;;;;;6.38;2.70;;;22.20;55.60;;;;;;5094246;28;20048;-64
2022/06/20 10:10:55;;;;;;;2.65;2.47;;;22.10;55.50;;;;;;5092873;27;20123;-64
2022/06/20 10:13:43;;;;;;;2.70;2.50;;;22.10;55.30;;;;;;5089307;28;20040;-63
2022/06/20 10:16:34;;;;;;;2.35;2.15;;;22.10;55.20;;;;;;5088789;28;20104;-64
2022/06/20 10:19:25;;;;;;;2.85;2.17;;;22.00;54.90;;;;;;5088953;28;20047;-64
2022/06/20 10:22:32;;;;;;;2.38;2.17;;;22.00;54.70;;;;;;5083516;28;20104;-64
2022/06/20 10:25:24;;;;;;;2.75;2.55;;;22.00;54.60;;;;;;5089713;28;20052;-64
2022/06/20 10:28:13;;;;;;;2.20;2.10;;;21.90;54.90;;;;;;5091640;28;20055;-63
2022/06/20 10:31:04;;;;;;;5.03;2.53;;;21.90;54.70;;;;;;5091706;28;20085;-64
2022/06/20 10:33:59;;;;;;;2.97;2.60;;;21.80;54.40;;;;;;5090256;27;20111;-64
2022/06/20 10:36:51;;;;;;;3.30;2.70;;;21.80;54.20;;;;;;5088943;27;20134;-63
2022/06/20 10:39:44;;;;;;;4.78;2.50;;;21.70;54.00;;;;;;5088881;28;20079;-64
2022/06/20 10:42:50;;;;;;;2.28;2.17;;;21.60;53.80;;;;;;5087066;28;20056;-64
2022/06/20 10:45:51;;;;;;;3.22;2.92;;;21.60;54.20;;;;;;5089022;27;20051;-64
2022/06/20 10:48:45;;;;;;;2.65;2.45;;;21.50;54.20;;;;;;5095217;28;20048;-66
2022/06/20 10:51:44;;;;;;;5.07;2.22;;;21.40;54.10;;;;;;5089541;28;20040;-66
2022/06/20 10:54:51;;;;;;;6.45;2.70;;;21.30;54.20;;;;;;5090072;28;20044;-64
2022/06/20 10:57:49;;;;;;;4.25;3.40;;;21.30;54.20;;;;;;5091526;28;20101;-67
2022/06/20 11:00:20;;;;;;;4.10;2.42;;;21.20;54.60;;;;;;5086206;28;20500;-69
2022/06/20 11:03:20;;;;;;;2.50;2.38;;;21.10;54.80;;;;;;5090785;28;20481;-67
2022/06/20 11:06:16;;;;;;;2.65;2.45;;;21.10;54.90;;;;;;5092524;28;20032;-66
2022/06/20 11:09:08;;;;;;;2.63;2.42;;;21.00;55.20;;;;;;5092955;28;20101;-66
2022/06/20 11:12:01;;;;;;;7.43;2.95;;;21.00;55.20;;;;;;5090965;28;20048;-62
2022/06/20 11:15:03;;;;;;;2.90;2.70;;;21.00;55.30;;;;;;5094174;28;20693;-63
2022/06/20 11:17:53;;;;;;;3.15;2.90;;;21.10;55.50;;;;;;5094581;28;20476;-64
2022/06/20 11:20:50;;;;;;;2.03;1.93;;;21.10;55.50;;;;;;5090122;28;20527;-64
2022/06/20 11:23:51;;;;;;;3.10;2.65;;;21.10;55.60;;;;;;5085474;28;20785;-64
2022/06/20 11:26:28;;;;;;;4.07;2.22;;;21.10;55.60;;;;;;5092361;28;20070;-64
2022/06/20 11:29:26;;;;;;;3.08;2.88;;;21.10;55.60;;;;;;5090017;28;20044;-65
2022/06/20 11:32:09;;;;;;;2.60;2.42;;;21.20;55.70;;;;;;5091264;28;20036;-64
2022/06/20 11:35:16;;;;;;;2.83;2.60;;;21.20;55.60;;;;;;5093458;28;20048;-65
2022/06/20 11:38:23;;;;;;;2.42;2.22;;;21.20;55.60;;;;;;5088249;28;20121;-66
2022/06/20 11:41:01;;;;;;;3.67;2.50;;;21.30;55.70;;;;;;5089352;28;20093;-65
2022/06/20 11:44:09;;;;;;;2.50;2.30;;;21.30;55.80;;;;;;5092412;28;20082;-65
2022/06/20 11:47:04;;;;;;;10.45;2.65;;;21.30;55.90;;;;;;5090228;28;20514;-66
2022/06/20 11:50:12;;;;;;;3.00;2.28;;;21.40;56.00;;;;;;5093320;28;20127;-67
2022/06/20 11:52:54;;;;;;;4.25;2.78;;;21.40;56.10;;;;;;5094739;28;20040;-65
2022/06/20 11:55:46;;;;;;;2.63;2.42;;;21.40;56.20;;;;;;5098390;28;20056;-71
2022/06/20 11:58:42;;;;;;;2.28;2.17;;;21.50;56.20;;;;;;5088583;28;20047;-64
2022/06/20 12:01:14;;;;;;;2.17;2.08;;;21.50;56.20;;;;;;5091827;28;20074;-66
2022/06/20 12:04:13;;;;;;;3.53;1.85;;;21.60;56.20;;;;;;5095649;28;20059;-65
2022/06/20 12:07:03;;;;;;;4.00;2.28;;;21.60;56.10;;;;;;5092353;28;20055;-64
2022/06/20 12:09:52;;;;;;;2.75;2.20;;;21.60;55.90;;;;;;5091218;28;20048;-63
2022/06/20 12:12:36;;;;;;;2.40;2.20;;;21.70;55.80;;;;;;5080248;28;20124;-64
2022/06/20 12:15:21;;;;;;;;;;;21.70;55.80;;;;;;5093248;28;20128;-64
2022/06/20 12:18:31;;;;;;;2.60;1.75;;;21.70;55.80;;;;;;5094628;28;20504;-64
2022/06/20 12:24:02;;;;;;;1.50;1.40;;;21.80;55.80;;;;;;5092120;28;20101;-65
2022/06/20 12:26:39;;;;;;;2.03;1.77;;;21.70;55.50;;;;;;5091886;27;20129;-66
2022/06/20 12:29:21;;;;;;;2.10;2.00;;;21.70;55.40;;;;;;5107086;27;20130;-66
2022/06/20 12:31:59;;;;;;;2.80;1.58;;;21.80;55.50;;;;;;5097429;28;20460;-65
2022/06/20 12:34:55;;;;;;;1.25;1.25;;;21.80;55.50;;;;;;5093005;28;20075;-63
2022/06/20 12:37:46;;;;;;;1.63;1.52;;;21.80;55.50;;;;;;5097379;28;20134;-62
2022/06/20 12:40:27;;;;;;;1.45;1.40;;;21.80;55.60;;;;;;5097761;28;20040;-62
2022/06/20 12:43:20;;;;;;;1.63;1.63;;;21.80;55.50;;;;;;5095417;28;20101;-62
2022/06/20 12:46:18;;;;;;;1.55;1.45;;;21.80;55.50;;;;;;5092378;28;20438;-61
2022/06/20 12:49:13;;;;;;;1.95;1.85;;;21.80;55.60;;;;;;5102719;27;20101;-62
2022/06/20 12:52:15;;;;;;;1.33;1.33;;;21.80;55.60;;;;;;5090536;28;20055;-62
2022/06/20 12:55:19;;;;;;;1.70;1.50;;;21.80;55.70;;;;;;5094570;28;20047;-61
2022/06/20 12:58:41;;;;;;;2.13;1.70;;;21.90;55.60;;;;;;5091092;28;20054;-62
2022/06/20 13:01:23;;;;;;;1.45;1.45;;;21.80;55.70;;;;;;5091121;28;20082;-63
2022/06/20 13:04:17;;;;;;;1.58;1.58;;;21.80;55.70;;;;;;5097079;27;20052;-63
2022/06/20 13:07:18;;;;;;;1.77;1.67;;;21.90;55.90;;;;;;5088509;27;20052;-63
2022/06/20 13:10:02;;;;;;;1.60;1.35;;;21.90;56.00;;;;;;5095430;28;20048;-63
2022/06/20 13:13:06;;;;;;;1.25;1.25;;;21.90;56.10;;;;;;5091871;28;20044;-61
2022/06/20 13:16:13;;;;;;;1.92;1.83;;;21.90;56.40;;;;;;5091631;28;20117;-68
2022/06/20 13:19:14;;;;;;;2.28;2.00;;;21.90;56.80;;;;;;5088615;28;20048;-66
2022/06/20 13:21:58;;;;;;;;;;;22.00;57.10;;;;;;5092815;28;20139;-64
2022/06/20 13:24:47;;;;;;;1.60;1.50;;;21.90;57.10;;;;;;5091239;28;19920;-67
2022/06/20 13:27:30;;;;;;;1.52;1.42;;;22.00;57.30;;;;;;5087915;28;20101;-65
2022/06/20 13:30:21;;;;;;;1.60;1.60;;;22.00;57.30;;;;;;5092855;28;20101;-64
2022/06/20 13:33:17;;;;;;;2.90;2.00;;;22.00;57.10;;;;;;5095289;28;20044;-65
2022/06/20 13:35:57;;;;;;;1.77;1.63;;;22.00;57.10;;;;;;5090665;28;20498;-63
2022/06/20 13:38:44;;;;;;;1.80;1.70;;;22.00;57.00;;;;;;5091645;28;20044;-65
2022/06/20 13:41:38;;;;;;;3.30;1.70;;;22.10;57.00;;;;;;5091029;28;20552;-65
2022/06/20 13:44:37;;;;;;;2.03;1.88;;;22.10;57.00;;;;;;5089209;28;20050;-64
2022/06/20 13:47:24;;;;;;;1.80;1.70;;;22.10;56.90;;;;;;5090967;28;20094;-63
2022/06/20 13:50:12;;;;;;;1.85;1.75;;;22.20;56.90;;;;;;5089837;28;20055;-66
2022/06/20 13:52:52;;;;;;;3.03;2.10;;;22.20;56.80;;;;;;5091622;28;20056;-66
2022/06/20 13:55:29;;;;;;;2.15;1.83;;;22.20;56.80;;;;;;5091961;28;20094;-66
2022/06/20 13:58:14;;;;;;;2.70;1.88;;;22.20;56.70;;;;;;5092849;28;20496;-65
2022/06/20 14:00:42;;;;;;;2.63;2.03;;;22.20;56.70;;;;;;5092893;28;20136;-66
2022/06/20 14:03:47;;;;;;;1.98;1.88;;;22.20;56.60;;;;;;5094619;27;20138;-65
2022/06/20 14:06:27;;;;;;;2.00;1.90;;;22.20;56.50;;;;;;5096912;28;20515;-64
2022/06/20 14:08:58;;;;;;;2.20;2.00;;;22.20;56.40;;;;;;5095094;27;20046;-65
2022/06/20 14:11:40;;;;;;;2.00;1.90;;;22.20;56.20;;;;;;5092890;28;20043;-65
2022/06/20 14:14:25;;;;;;;1.48;1.48;;;22.10;56.20;;;;;;5081602;28;20043;-65
2022/06/20 14:16:56;;;;;;;1.55;1.50;;;22.10;56.30;;;;;;5090747;28;20052;-64
2022/06/20 14:19:36;;;;;;;1.50;1.50;;;22.10;56.30;;;;;;5072214;28;20043;-66